createdAt,value
2023-03-28T00:00:05.929Z,-3.87
2023-03-28T00:00:15.931Z,-3.89
2023-03-28T00:00:25.935Z,-3.88
2023-03-28T00:00:45.931Z,-3.91
2023-03-28T00:00:55.934Z,-3.91
2023-03-28T00:01:05.935Z,-3.90
2023-03-28T00:01:15.933Z,-3.90
2023-03-28T00:01:25.983Z,-3.89
2023-03-28T00:01:35.949Z,-3.93
2023-03-28T00:01:45.937Z,-3.94
2023-03-28T00:01:55.934Z,-3.94
2023-03-28T00:02:05.945Z,-3.98
2023-03-28T00:02:15.942Z,-4.00
2023-03-28T00:02:35.951Z,-3.98
2023-03-28T00:02:45.973Z,-4.02
2023-03-28T00:02:55.994Z,-4.03
2023-03-28T00:03:06.081Z,-4.03
2023-03-28T00:03:15.964Z,-4.05
2023-03-28T00:03:25.970Z,-4.05
2023-03-28T00:03:36.100Z,-4.05
2023-03-28T00:03:46.104Z,-4.05
2023-03-28T00:03:56.087Z,-4.06
2023-03-28T00:04:06.042Z,-4.07
2023-03-28T00:04:16.032Z,-4.10
2023-03-28T00:04:25.952Z,-4.07
2023-03-28T00:04:35.947Z,-4.07
2023-03-28T00:04:45.958Z,-4.07
2023-03-28T00:05:05.953Z,-4.09
2023-03-28T00:05:15.960Z,-4.08
2023-03-28T00:05:25.980Z,-4.09
2023-03-28T00:05:35.966Z,-4.08
2023-03-28T00:05:45.989Z,-4.10
2023-03-28T00:05:56.013Z,-4.08
2023-03-28T00:06:06.079Z,-4.09
2023-03-28T00:06:16.012Z,-4.09
2023-03-28T00:06:26.032Z,-4.10
2023-03-28T00:06:35.959Z,-4.11
2023-03-28T00:06:45.972Z,-4.12
2023-03-28T00:06:55.969Z,-4.12
2023-03-28T00:07:05.965Z,-4.11
2023-03-28T00:07:15.971Z,-4.10
2023-03-28T00:07:25.969Z,-4.09
2023-03-28T00:07:35.963Z,-4.12
2023-03-28T00:07:45.973Z,-4.12
2023-03-28T00:07:55.967Z,-4.15
2023-03-28T00:08:05.966Z,-4.14
2023-03-28T00:08:15.977Z,-4.17
2023-03-28T00:08:25.982Z,-4.17
2023-03-28T00:08:36.025Z,-4.17
2023-03-28T00:08:46.065Z,-4.17
2023-03-28T00:08:55.987Z,-4.18
2023-03-28T00:09:05.992Z,-4.19
2023-03-28T00:09:25.968Z,-4.25
2023-03-28T00:09:35.972Z,-4.23
2023-03-28T00:09:45.974Z,-4.23
2023-03-28T00:09:55.982Z,-4.24
2023-03-28T00:10:05.989Z,-4.26
2023-03-28T00:10:15.981Z,-4.25
2023-03-28T00:10:25.983Z,-4.27
2023-03-28T00:10:35.987Z,-4.27
2023-03-28T00:10:45.982Z,-4.28
2023-03-28T00:10:55.987Z,-4.28
2023-03-28T00:11:05.988Z,-4.30
2023-03-28T00:11:15.987Z,-4.29
2023-03-28T00:11:25.995Z,-4.28
2023-03-28T00:11:36.006Z,-4.33
2023-03-28T00:11:45.994Z,-4.31
2023-03-28T00:11:55.992Z,-4.30
2023-03-28T00:12:05.991Z,-4.31
2023-03-28T00:12:15.994Z,-4.29
2023-03-28T00:12:25.985Z,-4.30
2023-03-28T00:12:45.998Z,-4.29
2023-03-28T00:12:55.998Z,-4.27
2023-03-28T00:13:05.976Z,-4.28
2023-03-28T00:13:16.005Z,-4.28
2023-03-28T00:13:25.998Z,-4.27
2023-03-28T00:13:36.008Z,-4.28
2023-03-28T00:13:46.011Z,-4.27
2023-03-28T00:13:56.001Z,-4.27
2023-03-28T00:14:06.001Z,-4.30
2023-03-28T00:14:16.012Z,-4.28
2023-03-28T00:14:26.012Z,-4.27
2023-03-28T00:14:36.034Z,-4.29
2023-03-28T00:14:46.017Z,-4.29
2023-03-28T00:14:56.004Z,-4.30
2023-03-28T00:15:06.012Z,-4.29
2023-03-28T00:15:16.014Z,-4.30
2023-03-28T00:15:26.005Z,-4.31
2023-03-28T00:15:46.033Z,-4.32
2023-03-28T00:15:56.034Z,-4.32
2023-03-28T00:16:06.054Z,-4.31
2023-03-28T00:16:16.061Z,-4.32
2023-03-28T00:16:26.154Z,-4.31
2023-03-28T00:16:36.034Z,-4.32
2023-03-28T00:16:46.014Z,-4.30
2023-03-28T00:16:56.041Z,-4.29
2023-03-28T00:17:06.013Z,-4.30
2023-03-28T00:17:26.037Z,-4.34
2023-03-28T00:17:36.068Z,-4.32
2023-03-28T00:17:46.049Z,-4.30
2023-03-28T00:17:56.061Z,-4.30
2023-03-28T00:18:06.018Z,-4.29
2023-03-28T00:18:16.036Z,-4.32
2023-03-28T00:18:26.018Z,-4.33
2023-03-28T00:18:36.022Z,-4.35
2023-03-28T00:18:46.030Z,-4.35
2023-03-28T00:18:56.025Z,-4.34
2023-03-28T00:19:06.028Z,-4.33
2023-03-28T00:19:16.053Z,-4.33
2023-03-28T00:19:26.040Z,-4.32
2023-03-28T00:19:36.024Z,-4.31
2023-03-28T00:19:46.031Z,-4.31
2023-03-28T00:19:56.033Z,-4.31
2023-03-28T00:20:07.864Z,-4.33
2023-03-28T00:20:26.035Z,-4.35
2023-03-28T00:20:36.033Z,-4.33
2023-03-28T00:20:46.043Z,-4.34
2023-03-28T00:20:56.030Z,-4.33
2023-03-28T00:21:06.039Z,-4.32
2023-03-28T00:21:16.036Z,-4.30
2023-03-28T00:21:26.040Z,-4.30
2023-03-28T00:21:36.050Z,-4.29
2023-03-28T00:21:46.041Z,-4.28
2023-03-28T00:21:56.048Z,-4.29
2023-03-28T00:22:06.044Z,-4.27
2023-03-28T00:22:16.045Z,-4.26
2023-03-28T00:22:26.041Z,-4.26
2023-03-28T00:22:46.043Z,-4.30
2023-03-28T00:22:56.042Z,-4.29
2023-03-28T00:23:06.040Z,-4.27
2023-03-28T00:23:16.043Z,-4.26
2023-03-28T00:23:26.063Z,-4.25
2023-03-28T00:23:36.046Z,-4.26
2023-03-28T00:23:46.052Z,-4.26
2023-03-28T00:23:56.063Z,-4.26
2023-03-28T00:24:06.073Z,-4.26
2023-03-28T00:24:16.052Z,-4.27
2023-03-28T00:24:26.053Z,-4.25
2023-03-28T00:24:36.050Z,-4.24
2023-03-28T00:24:46.055Z,-4.25
2023-03-28T00:24:56.073Z,-4.23
2023-03-28T00:25:16.055Z,-4.23
2023-03-28T00:25:26.062Z,-4.22
2023-03-28T00:25:36.064Z,-4.22
2023-03-28T00:25:46.064Z,-4.24
2023-03-28T00:25:56.059Z,-4.23
2023-03-28T00:26:06.082Z,-4.24
2023-03-28T00:26:16.057Z,-4.23
2023-03-28T00:26:26.071Z,-4.24
2023-03-28T00:26:36.196Z,-4.25
2023-03-28T00:26:46.103Z,-4.26
2023-03-28T00:26:56.064Z,-4.25
2023-03-28T00:27:16.078Z,-4.25
2023-03-28T00:27:26.078Z,-4.25
2023-03-28T00:27:36.065Z,-4.26
2023-03-28T00:27:46.070Z,-4.26
2023-03-28T00:27:56.053Z,-4.25
2023-03-28T00:28:06.070Z,-4.27
2023-03-28T00:28:16.070Z,-4.28
2023-03-28T00:28:26.070Z,-4.27
2023-03-28T00:28:36.072Z,-4.27
2023-03-28T00:28:46.065Z,-4.27
2023-03-28T00:28:56.099Z,-4.28
2023-03-28T00:29:06.075Z,-4.27
2023-03-28T00:29:16.086Z,-4.27
2023-03-28T00:29:26.117Z,-4.27
2023-03-28T00:29:36.079Z,-4.28
2023-03-28T00:29:46.076Z,-4.27
2023-03-28T00:29:56.080Z,-4.28
2023-03-28T00:30:06.111Z,-4.27
2023-03-28T00:30:16.081Z,-4.24
2023-03-28T00:30:26.082Z,-4.26
2023-03-28T00:30:36.082Z,-4.24
2023-03-28T00:30:46.082Z,-4.23
2023-03-28T00:30:56.162Z,-4.23
2023-03-28T00:31:16.116Z,-4.20
2023-03-28T00:31:26.147Z,-4.18
2023-03-28T00:31:36.139Z,-4.18
2023-03-28T00:31:46.182Z,-4.18
2023-03-28T00:31:56.090Z,-4.16
2023-03-28T00:32:06.092Z,-4.15
2023-03-28T00:32:16.094Z,-4.15
2023-03-28T00:32:26.113Z,-4.15
2023-03-28T00:32:46.133Z,-4.13
2023-03-28T00:32:56.125Z,-4.13
2023-03-28T00:33:06.228Z,-4.12
2023-03-28T00:33:16.100Z,-4.12
2023-03-28T00:33:26.117Z,-4.15
2023-03-28T00:33:36.097Z,-4.16
2023-03-28T00:33:56.098Z,-4.15
2023-03-28T00:34:06.094Z,-4.14
2023-03-28T00:34:16.099Z,-4.15
2023-03-28T00:34:26.097Z,-4.16
2023-03-28T00:34:36.098Z,-4.16
2023-03-28T00:34:46.114Z,-4.16
2023-03-28T00:34:56.098Z,-4.17
2023-03-28T00:35:06.099Z,-4.15
2023-03-28T00:35:16.110Z,-4.17
2023-03-28T00:35:26.120Z,-4.17
2023-03-28T00:35:36.166Z,-4.15
2023-03-28T00:35:46.161Z,-4.14
2023-03-28T00:35:56.119Z,-4.14
2023-03-28T00:36:16.116Z,-4.14
2023-03-28T00:36:26.112Z,-4.13
2023-03-28T00:36:36.131Z,-4.14
2023-03-28T00:36:46.112Z,-4.13
2023-03-28T00:36:56.116Z,-4.12
2023-03-28T00:37:06.113Z,-4.11
2023-03-28T00:37:16.133Z,-4.11
2023-03-28T00:37:26.117Z,-4.11
2023-03-28T00:37:46.165Z,-4.10
2023-03-28T00:37:56.116Z,-4.12
2023-03-28T00:38:06.120Z,-4.12
2023-03-28T00:38:16.121Z,-4.11
2023-03-28T00:38:26.114Z,-4.11
2023-03-28T00:38:36.125Z,-4.12
2023-03-28T00:38:46.124Z,-4.09
2023-03-28T00:38:56.116Z,-4.09
2023-03-28T00:39:06.124Z,-4.09
2023-03-28T00:39:16.121Z,-4.07
2023-03-28T00:39:36.118Z,-4.10
2023-03-28T00:39:46.122Z,-4.12
2023-03-28T00:39:56.116Z,-4.11
2023-03-28T00:40:06.153Z,-4.13
2023-03-28T00:40:16.130Z,-4.10
2023-03-28T00:40:26.129Z,-4.11
2023-03-28T00:40:36.120Z,-4.11
2023-03-28T00:40:46.161Z,-4.11
2023-03-28T00:40:56.139Z,-4.12
2023-03-28T00:41:06.167Z,-4.10
2023-03-28T00:41:16.199Z,-4.09
2023-03-28T00:41:26.145Z,-4.10
2023-03-28T00:41:36.166Z,-4.09
2023-03-28T00:41:46.131Z,-4.09
2023-03-28T00:41:56.132Z,-4.09
2023-03-28T00:42:06.133Z,-4.08
2023-03-28T00:42:16.135Z,-4.09
2023-03-28T00:42:26.129Z,-4.09
2023-03-28T00:42:36.145Z,-4.09
2023-03-28T00:42:46.146Z,-4.09
2023-03-28T00:42:56.134Z,-4.08
2023-03-28T00:43:16.133Z,-4.08
2023-03-28T00:43:26.139Z,-4.09
2023-03-28T00:43:36.146Z,-4.08
2023-03-28T00:43:46.138Z,-4.08
2023-03-28T00:43:56.133Z,-4.06
2023-03-28T00:44:06.138Z,-4.06
2023-03-28T00:44:16.143Z,-4.04
2023-03-28T00:44:26.149Z,-4.04
2023-03-28T00:44:36.150Z,-4.03
2023-03-28T00:44:46.142Z,-4.03
2023-03-28T00:44:56.146Z,-4.04
2023-03-28T00:45:06.154Z,-4.01
2023-03-28T00:45:16.169Z,-4.02
2023-03-28T00:45:26.159Z,-4.01
2023-03-28T00:45:36.156Z,-4.04
2023-03-28T00:45:48.843Z,-4.02
2023-03-28T00:46:06.471Z,-4.05
2023-03-28T00:46:09.316Z,-4.07
2023-03-28T00:46:16.217Z,-4.08
2023-03-28T00:46:36.265Z,-4.05
2023-03-28T00:46:46.225Z,-4.05
2023-03-28T00:46:56.162Z,-4.06
2023-03-28T00:47:06.193Z,-4.04
2023-03-28T00:47:16.158Z,-4.03
2023-03-28T00:47:26.206Z,-4.02
2023-03-28T00:47:46.203Z,-4.01
2023-03-28T00:47:56.190Z,-3.99
2023-03-28T00:48:06.185Z,-3.99
2023-03-28T00:48:17.169Z,-4.00
2023-03-28T00:48:26.161Z,-3.98
2023-03-28T00:48:36.154Z,-4.00
2023-03-28T00:48:46.159Z,-4.04
2023-03-28T00:48:56.157Z,-3.98
2023-03-28T00:49:16.158Z,-3.98
2023-03-28T00:49:26.166Z,-3.98
2023-03-28T00:49:36.157Z,-4.00
2023-03-28T00:49:46.166Z,-4.00
2023-03-28T00:49:56.161Z,-3.99
2023-03-28T00:50:06.175Z,-3.98
2023-03-28T00:50:16.167Z,-3.98
2023-03-28T00:50:26.170Z,-4.00
2023-03-28T00:50:36.173Z,-3.99
2023-03-28T00:50:46.168Z,-4.01
2023-03-28T00:50:56.163Z,-4.02
2023-03-28T00:51:06.162Z,-4.01
2023-03-28T00:51:16.181Z,-3.99
2023-03-28T00:51:26.168Z,-4.02
2023-03-28T00:51:36.187Z,-4.01
2023-03-28T00:51:46.166Z,-4.00
2023-03-28T00:51:56.179Z,-4.00
2023-03-28T00:52:06.170Z,-4.00
2023-03-28T00:52:16.177Z,-4.01
2023-03-28T00:52:26.174Z,-4.00
2023-03-28T00:52:46.172Z,-3.99
2023-03-28T00:52:56.178Z,-3.98
2023-03-28T00:53:06.187Z,-3.98
2023-03-28T00:53:16.174Z,-4.00
2023-03-28T00:53:26.171Z,-4.00
2023-03-28T00:53:36.179Z,-4.02
2023-03-28T00:53:46.170Z,-4.00
2023-03-28T00:53:56.180Z,-4.01
2023-03-28T00:54:06.191Z,-4.00
2023-03-28T00:54:16.181Z,-4.00
2023-03-28T00:54:26.196Z,-3.99
2023-03-28T00:54:36.182Z,-3.98
2023-03-28T00:54:46.188Z,-3.98
2023-03-28T00:54:56.181Z,-3.96
2023-03-28T00:55:06.178Z,-3.96
2023-03-28T00:55:16.179Z,-3.94
2023-03-28T00:55:26.182Z,-3.98
2023-03-28T00:55:36.204Z,-3.97
2023-03-28T00:55:46.188Z,-3.98
2023-03-28T00:55:56.305Z,-3.96
2023-03-28T00:56:06.188Z,-3.96
2023-03-28T00:56:16.201Z,-3.96
2023-03-28T00:56:26.189Z,-3.95
2023-03-28T00:56:36.223Z,-3.95
2023-03-28T00:56:46.213Z,-3.95
2023-03-28T00:57:06.248Z,-3.95
2023-03-28T00:57:16.236Z,-3.96
2023-03-28T00:57:26.195Z,-3.96
2023-03-28T00:57:36.201Z,-3.94
2023-03-28T00:57:46.210Z,-3.94
2023-03-28T00:57:56.191Z,-3.94
2023-03-28T00:58:06.195Z,-3.94
2023-03-28T00:58:26.195Z,-3.94
2023-03-28T00:58:36.209Z,-3.93
2023-03-28T00:58:46.198Z,-3.93
2023-03-28T00:58:56.203Z,-3.94
2023-03-28T00:59:06.199Z,-3.95
2023-03-28T00:59:16.199Z,-3.97
2023-03-28T00:59:36.211Z,-3.96
2023-03-28T00:59:46.221Z,-3.97
2023-03-28T00:59:56.213Z,-3.97
2023-03-28T01:00:06.231Z,-3.97
2023-03-28T01:00:16.206Z,-3.97
2023-03-28T01:00:26.221Z,-3.98
2023-03-28T01:00:36.212Z,-3.99
2023-03-28T01:00:46.209Z,-3.98
2023-03-28T01:00:56.226Z,-4.00
2023-03-28T01:01:16.276Z,-4.00
2023-03-28T01:01:26.233Z,-3.99
2023-03-28T01:01:36.278Z,-3.97
2023-03-28T01:01:46.242Z,-3.98
2023-03-28T01:01:56.235Z,-3.97
2023-03-28T01:02:06.363Z,-3.97
2023-03-28T01:02:16.248Z,-3.97
2023-03-28T01:02:26.302Z,-3.96
2023-03-28T01:02:46.284Z,-3.99
2023-03-28T01:02:56.460Z,-3.99
2023-03-28T01:03:06.336Z,-3.97
2023-03-28T01:03:16.315Z,-3.97
2023-03-28T01:03:26.254Z,-3.98
2023-03-28T01:03:36.305Z,-3.96
2023-03-28T01:03:46.443Z,-3.97
2023-03-28T01:03:56.237Z,-3.95
2023-03-28T01:04:06.232Z,-3.94
2023-03-28T01:04:16.222Z,-3.94
2023-03-28T01:04:26.216Z,-3.94
2023-03-28T01:04:36.246Z,-3.94
2023-03-28T01:04:46.221Z,-3.95
2023-03-28T01:04:56.218Z,-3.97
2023-03-28T01:05:06.233Z,-3.93
2023-03-28T01:05:16.221Z,-3.94
2023-03-28T01:05:26.220Z,-3.94
2023-03-28T01:05:36.278Z,-3.96
2023-03-28T01:05:46.225Z,-3.95
2023-03-28T01:05:56.241Z,-3.96
2023-03-28T01:06:06.259Z,-3.96
2023-03-28T01:06:16.229Z,-3.96
2023-03-28T01:06:26.231Z,-3.95
2023-03-28T01:06:36.259Z,-3.98
2023-03-28T01:06:46.231Z,-3.98
2023-03-28T01:07:06.233Z,-3.97
2023-03-28T01:07:16.233Z,-3.99
2023-03-28T01:07:26.235Z,-3.98
2023-03-28T01:07:36.240Z,-4.00
2023-03-28T01:07:46.234Z,-3.98
2023-03-28T01:07:56.239Z,-3.98
2023-03-28T01:08:06.242Z,-3.97
2023-03-28T01:08:16.245Z,-3.97
2023-03-28T01:08:26.245Z,-4.00
2023-03-28T01:08:36.247Z,-4.00
2023-03-28T01:08:46.251Z,-4.01
2023-03-28T01:08:56.247Z,-4.01
2023-03-28T01:09:06.236Z,-4.01
2023-03-28T01:09:16.242Z,-3.99
2023-03-28T01:09:26.244Z,-3.98
2023-03-28T01:09:36.239Z,-3.98
2023-03-28T01:09:46.247Z,-3.98
2023-03-28T01:09:56.249Z,-3.96
2023-03-28T01:10:06.248Z,-3.96
2023-03-28T01:10:16.251Z,-3.98
2023-03-28T01:10:26.252Z,-3.98
2023-03-28T01:10:36.249Z,-3.98
2023-03-28T01:10:46.254Z,-4.00
2023-03-28T01:10:56.252Z,-3.99
2023-03-28T01:11:06.282Z,-4.00
2023-03-28T01:11:16.260Z,-4.02
2023-03-28T01:11:26.255Z,-4.01
2023-03-28T01:11:36.259Z,-4.01
2023-03-28T01:11:46.261Z,-4.01
2023-03-28T01:11:56.250Z,-4.00
2023-03-28T01:12:06.265Z,-3.99
2023-03-28T01:12:16.251Z,-4.00
2023-03-28T01:12:26.273Z,-4.01
2023-03-28T01:12:36.271Z,-4.00
2023-03-28T01:12:46.276Z,-4.01
2023-03-28T01:12:56.275Z,-4.00
2023-03-28T01:13:06.255Z,-4.00
2023-03-28T01:13:16.261Z,-4.00
2023-03-28T01:13:36.270Z,-3.98
2023-03-28T01:13:46.255Z,-4.00
2023-03-28T01:13:56.270Z,-4.00
2023-03-28T01:14:06.262Z,-3.99
2023-03-28T01:14:16.275Z,-3.99
2023-03-28T01:14:26.267Z,-4.00
2023-03-28T01:14:46.275Z,-3.99
2023-03-28T01:14:56.263Z,-4.01
2023-03-28T01:15:06.269Z,-4.02
2023-03-28T01:15:16.284Z,-4.01
2023-03-28T01:15:26.277Z,-4.01
2023-03-28T01:15:36.260Z,-3.98
2023-03-28T01:15:56.403Z,-4.00
2023-03-28T01:16:06.322Z,-3.99
2023-03-28T01:16:16.344Z,-4.00
2023-03-28T01:16:26.287Z,-3.98
2023-03-28T01:16:36.341Z,-4.00
2023-03-28T01:16:46.283Z,-3.99
2023-03-28T01:16:56.332Z,-4.00
2023-03-28T01:17:06.283Z,-3.99
2023-03-28T01:17:16.281Z,-3.99
2023-03-28T01:17:26.302Z,-4.02
2023-03-28T01:17:36.352Z,-3.99
2023-03-28T01:17:46.336Z,-3.99
2023-03-28T01:17:56.280Z,-3.97
2023-03-28T01:18:06.319Z,-3.97
2023-03-28T01:18:16.286Z,-3.97
2023-03-28T01:18:26.281Z,-3.98
2023-03-28T01:18:36.286Z,-3.96
2023-03-28T01:18:46.273Z,-3.97
2023-03-28T01:18:56.295Z,-4.01
2023-03-28T01:19:06.283Z,-3.99
2023-03-28T01:19:16.292Z,-3.98
2023-03-28T01:19:26.276Z,-3.99
2023-03-28T01:19:36.275Z,-3.98
2023-03-28T01:19:46.284Z,-3.97
2023-03-28T01:19:56.283Z,-3.97
2023-03-28T01:20:06.325Z,-3.96
2023-03-28T01:20:26.283Z,-4.00
2023-03-28T01:20:36.290Z,-4.02
2023-03-28T01:20:46.285Z,-4.00
2023-03-28T01:20:56.283Z,-3.99
2023-03-28T01:21:06.318Z,-4.01
2023-03-28T01:21:16.288Z,-4.01
2023-03-28T01:21:26.286Z,-3.99
2023-03-28T01:21:36.286Z,-3.98
2023-03-28T01:21:46.321Z,-3.98
2023-03-28T01:21:56.297Z,-3.97
2023-03-28T01:22:06.296Z,-3.97
2023-03-28T01:22:26.307Z,-3.97
2023-03-28T01:22:36.292Z,-3.99
2023-03-28T01:22:56.646Z,-3.99
2023-03-28T01:22:58.011Z,-4.00
2023-03-28T01:23:06.296Z,-4.01
2023-03-28T01:23:16.298Z,-4.00
2023-03-28T01:23:26.307Z,-3.97
2023-03-28T01:23:36.297Z,-3.98
2023-03-28T01:24:11.401Z,-3.97
2023-03-28T01:24:11.590Z,-3.98
2023-03-28T01:24:17.808Z,-4.03
2023-03-28T01:24:26.305Z,-4.02
2023-03-28T01:24:36.302Z,-3.97
2023-03-28T01:24:46.308Z,-3.98
2023-03-28T01:24:56.306Z,-3.98
2023-03-28T01:25:16.332Z,-3.96
2023-03-28T01:25:26.312Z,-3.96
2023-03-28T01:25:36.312Z,-3.96
2023-03-28T01:25:46.301Z,-3.96
2023-03-28T01:25:56.311Z,-3.97
2023-03-28T01:26:06.307Z,-3.95
2023-03-28T01:26:16.322Z,-3.95
2023-03-28T01:26:26.307Z,-3.97
2023-03-28T01:26:36.313Z,-3.98
2023-03-28T01:26:46.329Z,-3.95
2023-03-28T01:26:56.330Z,-3.97
2023-03-28T01:27:06.319Z,-3.94
2023-03-28T01:27:16.321Z,-3.96
2023-03-28T01:27:26.316Z,-3.96
2023-03-28T01:27:36.322Z,-3.97
2023-03-28T01:27:56.316Z,-3.96
2023-03-28T01:28:06.329Z,-3.98
2023-03-28T01:28:16.333Z,-3.99
2023-03-28T01:28:26.324Z,-4.02
2023-03-28T01:28:36.320Z,-4.00
2023-03-28T01:28:46.322Z,-4.02
2023-03-28T01:28:56.335Z,-4.00
2023-03-28T01:29:06.336Z,-4.00
2023-03-28T01:29:16.323Z,-4.01
2023-03-28T01:29:26.318Z,-3.99
2023-03-28T01:29:36.323Z,-3.97
2023-03-28T01:29:46.327Z,-3.99
2023-03-28T01:29:56.328Z,-4.01
2023-03-28T01:30:06.335Z,-4.00
2023-03-28T01:30:16.353Z,-4.00
2023-03-28T01:30:26.340Z,-4.00
2023-03-28T01:30:46.330Z,-3.98
2023-03-28T01:30:56.333Z,-3.98
2023-03-28T01:31:06.359Z,-4.00
2023-03-28T01:31:16.395Z,-4.01
2023-03-28T01:31:26.386Z,-4.02
2023-03-28T01:31:36.384Z,-4.03
2023-03-28T01:31:46.440Z,-4.05
2023-03-28T01:31:56.456Z,-4.04
2023-03-28T01:32:06.345Z,-4.03
2023-03-28T01:32:16.333Z,-4.05
2023-03-28T01:32:26.369Z,-4.02
2023-03-28T01:32:36.384Z,-4.05
2023-03-28T01:32:56.360Z,-4.04
2023-03-28T01:33:06.381Z,-4.04
2023-03-28T01:33:16.344Z,-4.02
2023-03-28T01:33:26.352Z,-4.03
2023-03-28T01:33:36.338Z,-4.02
2023-03-28T01:33:46.354Z,-4.01
2023-03-28T01:33:56.337Z,-4.01
2023-03-28T01:34:06.341Z,-4.02
2023-03-28T01:34:16.348Z,-4.02
2023-03-28T01:34:26.347Z,-4.01
2023-03-28T01:34:36.344Z,-4.02
2023-03-28T01:34:46.350Z,-4.00
2023-03-28T01:34:56.348Z,-3.98
2023-03-28T01:35:06.351Z,-4.01
2023-03-28T01:35:16.372Z,-3.98
2023-03-28T01:35:26.380Z,-3.99
2023-03-28T01:35:36.388Z,-3.98
2023-03-28T01:35:46.410Z,-3.99
2023-03-28T01:35:56.402Z,-3.98
2023-03-28T01:36:06.446Z,-3.96
2023-03-28T01:36:33.864Z,-3.98
2023-03-28T01:36:33.907Z,-3.96
2023-03-28T01:36:37.354Z,-4.01
2023-03-28T01:36:46.380Z,-4.02
2023-03-28T01:36:56.352Z,-4.02
2023-03-28T01:37:06.365Z,-4.04
2023-03-28T01:37:16.368Z,-4.03
2023-03-28T01:37:36.389Z,-4.02
2023-03-28T01:37:46.364Z,-4.04
2023-03-28T01:37:56.356Z,-4.03
2023-03-28T01:38:06.361Z,-4.05
2023-03-28T01:38:16.400Z,-4.05
2023-03-28T01:38:26.359Z,-4.03
2023-03-28T01:38:36.361Z,-4.02
2023-03-28T01:38:46.370Z,-4.01
2023-03-28T01:38:56.365Z,-4.01
2023-03-28T01:39:06.380Z,-4.02
2023-03-28T01:39:16.367Z,-4.01
2023-03-28T01:39:26.365Z,-4.01
2023-03-28T01:39:36.367Z,-4.02
2023-03-28T01:39:46.384Z,-4.02
2023-03-28T01:39:56.366Z,-4.03
2023-03-28T01:40:16.398Z,-4.02
2023-03-28T01:40:26.380Z,-4.02
2023-03-28T01:40:36.381Z,-4.01
2023-03-28T01:40:46.374Z,-4.02
2023-03-28T01:40:56.375Z,-4.01
2023-03-28T01:41:06.381Z,-4.01
2023-03-28T01:41:16.603Z,-4.01
2023-03-28T01:41:36.383Z,-4.01
2023-03-28T01:41:46.392Z,-4.01
2023-03-28T01:41:56.387Z,-4.01
2023-03-28T01:42:06.383Z,-4.02
2023-03-28T01:42:16.393Z,-4.01
2023-03-28T01:42:26.384Z,-4.01
2023-03-28T01:42:36.381Z,-4.03
2023-03-28T01:42:46.400Z,-4.03
2023-03-28T01:42:56.376Z,-4.03
2023-03-28T01:43:06.388Z,-4.03
2023-03-28T01:43:16.388Z,-4.03
2023-03-28T01:43:26.387Z,-4.03
2023-03-28T01:43:36.385Z,-4.05
2023-03-28T01:43:56.392Z,-4.04
2023-03-28T01:44:06.391Z,-4.05
2023-03-28T01:44:16.401Z,-4.07
2023-03-28T01:44:26.395Z,-4.07
2023-03-28T01:44:36.392Z,-4.06
2023-03-28T01:44:46.397Z,-4.06
2023-03-28T01:44:56.404Z,-4.06
2023-03-28T01:45:16.395Z,-4.05
2023-03-28T01:45:26.393Z,-4.04
2023-03-28T01:45:36.456Z,-4.04
2023-03-28T01:45:46.433Z,-4.05
2023-03-28T01:45:56.422Z,-4.03
2023-03-28T01:46:06.412Z,-4.04
2023-03-28T01:46:16.446Z,-4.04
2023-03-28T01:46:26.450Z,-4.04
2023-03-28T01:46:36.448Z,-4.04
2023-03-28T01:46:46.403Z,-4.03
2023-03-28T01:46:56.412Z,-4.04
2023-03-28T01:47:06.411Z,-4.04
2023-03-28T01:47:16.437Z,-4.08
2023-03-28T01:47:26.448Z,-4.07
2023-03-28T01:47:36.440Z,-4.08
2023-03-28T01:47:46.455Z,-4.09
2023-03-28T01:48:06.428Z,-4.12
2023-03-28T01:48:16.409Z,-4.15
2023-03-28T01:48:26.407Z,-4.17
2023-03-28T01:48:36.416Z,-4.18
2023-03-28T01:48:46.409Z,-4.18
2023-03-28T01:48:56.410Z,-4.15
2023-03-28T01:49:06.409Z,-4.16
2023-03-28T01:49:16.449Z,-4.16
2023-03-28T01:49:26.420Z,-4.17
2023-03-28T01:49:46.418Z,-4.19
2023-03-28T01:49:56.419Z,-4.20
2023-03-28T01:50:06.418Z,-4.20
2023-03-28T01:50:16.427Z,-4.19
2023-03-28T01:50:26.418Z,-4.21
2023-03-28T01:50:36.419Z,-4.22
2023-03-28T01:50:46.422Z,-4.25
2023-03-28T01:50:56.432Z,-4.25
2023-03-28T01:51:06.424Z,-4.27
2023-03-28T01:51:16.437Z,-4.24
2023-03-28T01:51:26.427Z,-4.25
2023-03-28T01:51:46.417Z,-4.26
2023-03-28T01:51:56.440Z,-4.26
2023-03-28T01:52:06.419Z,-4.25
2023-03-28T01:52:16.426Z,-4.27
2023-03-28T01:52:26.430Z,-4.30
2023-03-28T01:52:36.437Z,-4.30
2023-03-28T01:52:46.430Z,-4.28
2023-03-28T01:53:06.428Z,-4.27
2023-03-28T01:53:16.433Z,-4.26
2023-03-28T01:53:26.432Z,-4.27
2023-03-28T01:53:36.443Z,-4.25
2023-03-28T01:53:46.441Z,-4.25
2023-03-28T01:53:56.426Z,-4.28
2023-03-28T01:54:06.446Z,-4.28
2023-03-28T01:54:16.431Z,-4.29
2023-03-28T01:54:26.443Z,-4.26
2023-03-28T01:54:36.441Z,-4.27
2023-03-28T01:54:46.440Z,-4.28
2023-03-28T01:54:56.434Z,-4.28
2023-03-28T01:55:06.438Z,-4.29
2023-03-28T01:55:16.447Z,-4.31
2023-03-28T01:55:26.443Z,-4.28
2023-03-28T01:55:41.565Z,-4.29
2023-03-28T01:55:47.445Z,-4.32
2023-03-28T01:55:56.583Z,-4.32
2023-03-28T01:56:06.449Z,-4.30
2023-03-28T01:56:16.496Z,-4.33
2023-03-28T01:56:26.463Z,-4.32
2023-03-28T01:56:36.544Z,-4.31
2023-03-28T01:56:56.536Z,-4.29
2023-03-28T01:57:06.544Z,-4.30
2023-03-28T01:57:16.561Z,-4.28
2023-03-28T01:57:26.638Z,-4.28
2023-03-28T01:57:36.473Z,-4.26
2023-03-28T01:57:46.527Z,-4.28
2023-03-28T01:57:56.463Z,-4.27
2023-03-28T01:58:06.461Z,-4.27
2023-03-28T01:58:26.461Z,-4.26
2023-03-28T01:58:36.467Z,-4.26
2023-03-28T01:58:46.475Z,-4.26
2023-03-28T01:58:56.468Z,-4.25
2023-03-28T01:59:06.462Z,-4.26
2023-03-28T01:59:16.464Z,-4.27
2023-03-28T01:59:26.468Z,-4.26
2023-03-28T01:59:36.472Z,-4.25
2023-03-28T01:59:46.467Z,-4.27
2023-03-28T01:59:56.463Z,-4.26
2023-03-28T02:00:07.304Z,-4.27
2023-03-28T02:00:26.468Z,-4.25
2023-03-28T02:00:36.477Z,-4.26
2023-03-28T02:00:46.509Z,-4.28
2023-03-28T02:00:56.515Z,-4.29
2023-03-28T02:01:06.479Z,-4.30
2023-03-28T02:01:16.580Z,-4.28
2023-03-28T02:01:26.534Z,-4.29
2023-03-28T02:01:36.596Z,-4.28
2023-03-28T02:01:46.469Z,-4.30
2023-03-28T02:01:56.499Z,-4.28
2023-03-28T02:02:06.554Z,-4.27
2023-03-28T02:02:26.584Z,-4.26
2023-03-28T02:02:36.541Z,-4.23
2023-03-28T02:02:46.577Z,-4.24
2023-03-28T02:02:56.524Z,-4.23
2023-03-28T02:03:06.724Z,-4.22
2023-03-28T02:03:16.520Z,-4.23
2023-03-28T02:03:26.572Z,-4.23
2023-03-28T02:03:36.530Z,-4.22
2023-03-28T02:03:46.487Z,-4.24
2023-03-28T02:03:56.484Z,-4.23
2023-03-28T02:04:06.489Z,-4.25
2023-03-28T02:04:20.777Z,-4.26
2023-03-28T02:04:36.493Z,-4.29
2023-03-28T02:04:46.499Z,-4.27
2023-03-28T02:04:57.205Z,-4.25
2023-03-28T02:05:06.483Z,-4.27
2023-03-28T02:05:16.492Z,-4.26
2023-03-28T02:05:26.500Z,-4.24
2023-03-28T02:05:36.506Z,-4.22
2023-03-28T02:05:56.517Z,-4.23
2023-03-28T02:06:06.494Z,-4.22
2023-03-28T02:06:16.498Z,-4.23
2023-03-28T02:06:26.493Z,-4.21
2023-03-28T02:06:36.519Z,-4.21
2023-03-28T02:06:46.505Z,-4.20
2023-03-28T02:06:56.525Z,-4.21
2023-03-28T02:07:06.497Z,-4.22
2023-03-28T02:07:16.521Z,-4.22
2023-03-28T02:07:26.506Z,-4.23
2023-03-28T02:07:36.515Z,-4.21
2023-03-28T02:07:46.507Z,-4.22
2023-03-28T02:08:06.508Z,-4.22
2023-03-28T02:08:16.500Z,-4.21
2023-03-28T02:08:26.512Z,-4.23
2023-03-28T02:08:36.514Z,-4.22
2023-03-28T02:08:46.550Z,-4.20
2023-03-28T02:08:56.511Z,-4.21
2023-03-28T02:09:06.535Z,-4.21
2023-03-28T02:09:16.510Z,-4.22
2023-03-28T02:09:26.543Z,-4.23
2023-03-28T02:09:36.514Z,-4.24
2023-03-28T02:09:46.514Z,-4.24
2023-03-28T02:09:56.514Z,-4.24
2023-03-28T02:10:16.516Z,-4.21
2023-03-28T02:10:26.533Z,-4.22
2023-03-28T02:10:36.517Z,-4.22
2023-03-28T02:10:46.526Z,-4.22
2023-03-28T02:10:56.522Z,-4.22
2023-03-28T02:11:06.520Z,-4.20
2023-03-28T02:11:16.521Z,-4.22
2023-03-28T02:11:26.536Z,-4.22
2023-03-28T02:11:36.522Z,-4.21
2023-03-28T02:11:46.526Z,-4.21
2023-03-28T02:11:56.562Z,-4.22
2023-03-28T02:12:16.531Z,-4.23
2023-03-28T02:12:26.540Z,-4.21
2023-03-28T02:12:36.530Z,-4.22
2023-03-28T02:12:46.537Z,-4.23
2023-03-28T02:12:56.532Z,-4.23
2023-03-28T02:13:06.544Z,-4.22
2023-03-28T02:13:16.545Z,-4.22
2023-03-28T02:13:26.561Z,-4.19
2023-03-28T02:13:36.540Z,-4.18
2023-03-28T02:13:46.539Z,-4.17
2023-03-28T02:13:56.542Z,-4.17
2023-03-28T02:14:16.552Z,-4.17
2023-03-28T02:14:26.544Z,-4.20
2023-03-28T02:14:36.545Z,-4.18
2023-03-28T02:14:46.543Z,-4.17
2023-03-28T02:14:56.545Z,-4.17
2023-03-28T02:15:06.541Z,-4.17
2023-03-28T02:15:16.565Z,-4.16
2023-03-28T02:15:26.545Z,-4.15
2023-03-28T02:15:36.549Z,-4.15
2023-03-28T02:15:46.554Z,-4.14
2023-03-28T02:15:56.596Z,-4.15
2023-03-28T02:16:06.583Z,-4.16
2023-03-28T02:16:16.562Z,-4.15
2023-03-28T02:16:26.643Z,-4.14
2023-03-28T02:16:36.629Z,-4.15
2023-03-28T02:16:46.589Z,-4.15
2023-03-28T02:16:56.587Z,-4.14
2023-03-28T02:17:06.561Z,-4.15
2023-03-28T02:17:16.589Z,-4.15
2023-03-28T02:17:26.575Z,-4.15
2023-03-28T02:17:36.609Z,-4.14
2023-03-28T02:17:56.640Z,-4.12
2023-03-28T02:18:06.598Z,-4.12
2023-03-28T02:18:16.576Z,-4.12
2023-03-28T02:18:26.567Z,-4.12